To NAV CANADA Home Page Login to a new session Search on AWWS site Feedback and Comments Disclaimer Vers la page française équivalente Tips FAQ What's new on the site To the Forecasts and Observations / NOTAM section To "File a Flight Plan" website Publications and other links Update of the User's profile FIC Telephone Numbers My Weather Data Folder Route Weather Data Regional Weather Data Local Weather Data To the Forecasts and Observations / NOTAM section
Request Generated 05/27/2015 at 23:33:36 UTC . Weather information available at that time is displayed.

METAR/TAF

MAYO/YT    

SPECI CYMA 272319Z 06011G23KT 030V210 20SM +TSRA BKN055CB 25/11 A3002
RMK CB6 SLP171 DENSITY ALT 3000FT=
METAR CYMA 272300Z 12005KT 20SM BKN055TCU 24/07 A3001 RMK TCU6 FU
SLP170 DENSITY ALT 2900FT=
METAR CYMA 272200Z VRB08KT 20SM BKN055TCU BKN080 24/06 A3002 RMK
TCU5AC1 FU SLP171 DENSITY ALT 2900FT=
METAR CYMA 272100Z 35008KT 330V070 20SM SCT050TCU BKN080 24/08 A3002
RMK TCU4AC1 FU SLP173 DENSITY ALT 2900FT=

TAF AMD CYMA 272052Z 2720/2806 02008KT P6SM BKN080 PROB30 2720/2802
VRB15G25KT 5SM TSRA BKN070CB
RMK NXT FCST BY 280000Z=
Your time UTC time
Weather data provided by Environment Canada and NAV CANADA